Kaltag, AK

8:16 AM AKDT on July 30, 2014 (GMT -0800)
Kaltag (PAKV) Elev 200 ft | 64.32 °N, 158.74 °W | Change Station

Current weather conditions updated 23 minutes ago

Clear
Clear
51 °F
Feels Like 51 °F
N
5
Wind Variable Wind from SW

Today is forecast to be nearly the same temperature as yesterday.

Today
High -- | Low -- °F
--% Chance of Precip.
Yesterday
High -- | Low -- °F
Precip. -- in
5:34 AM 11:45 PM
Waxing Crescent, 12% visible
Pressure 30.29 in
Visibility 10.0 miles
Clouds Clear
Dew Point 45 °F
Humidity 80%
Rainfall 0.00 in
Snow Depth Not available.
UV 1 out of 12
Pollen Not available.
Air Quality Not available.
Flu Activity Not available.
METAR PAKV 301553Z AUTO 22004KT 10SM CLR 11/07 A3028 RMK AO1 SLP255 T01060072 TSNO

More Conditions Fewer Conditions

Pressure 30.29 in
Visibility 10.0 miles
Clouds Clear
Dew Point 45 °F
Humidity 80%
Rainfall 0.00 in
Snow Depth Not available.
UV 1 out of 12
Pollen Not available.
Air Quality Not available.
Flu Activity Not available.
METAR PAKV 301553Z AUTO 22004KT 10SM CLR 11/07 A3028 RMK AO1 SLP255 T01060072 TSNO

More Conditions Fewer Conditions

10-Day Weather Forecast

Almanac

Astronomy

Jul. 30, 2014 Rise Set
Actual Time 5:34 AM AKDT 11:45 PM AKDT
Civil Twilight 3:55 AM AKDT 1:20 AM AKDT
Nautical Twilight Sun does not rise Sun does not rise
Astronomical Twilight Sun does not rise Sun does not rise
Moon 11:05 AM AKDT 11:36 PM AKDT
Length of Visible Light 21h 25m
Length of Day
18h 11m
Tomorrow will be 6m 37s shorter.
Waxing Crescent, 12% of the Moon is Illuminated
Today
Waxing Crescent
Aug 3
First Quarter
Aug 10
Full
Aug 17
Last Quarter
Aug 25
New

Today's Extremes

State Highs State Lows

Community

WunderPhotos

Upload Photos

1,739,121 photos uploaded!

WunderBlogs® & News

By Dr. Jeff Masters
Director of Meteorology, Weather Underground
By Kari Strenfel
Meteorologist, Weather Underground
By Christopher C. Burt
Weather Historian, Weather Underground
July 30, 2014
July 30, 2014
July 30, 2014

Nearby

Snow Depth

Station Depth Elevation
Rocky Point 2 in 500 ft
Gobblers Knob 0 in 2030 ft
Susitna Valley High 2 in 375 ft
Coldfoot 0 in 1040 ft
Point Mackenzie 1 in 200 ft

Earthquake Activity

City Distance Mag. Time & Date
No recent earthquake activity has been reported nearby.
Minimum magnitude displayed is 2.5.

Coastal Water Temperatures

Place Temperature
No Stations Reporting

Nearby Weather Stations

Station Location Temp. Dew Point Humidity Wind Precip. Elev Updated Type
RAWS KAIYUH AK, Kaltag, AK 52 °F 51 °F 95% North  at  0 mph 0.00 in / hr 109 ft 7:21 AM AKDT MADIS

Show More Stations Show Fewer Stations